Terminal Aerodrome Forecast
Issued by NWS

Home | Current Version | Previous Version | Text Only | Print | Product List | Glossary On
Versions: 1 2 3 4 5 6 7 8 9 10 11 12 13 14 15 16 17
000
FTUS46 KSEW 190500
TAFBLI
TAF
KBLI 190520Z 1906/2006 17006KT P6SM SCT015 BKN030 OVC045
     FM191000 16006KT P6SM BKN015 OVC030
      TEMPO 1910/1914 5SM -SHRA BR OVC015
     FM192000 17010KT P6SM BKN035 BKN060
     FM192300 20008KT P6SM SCT060 SCT120=

USA.gov is the U.S. government's official web portal to all federal, state and local government web resources and services.